Aeroporto :
LOGIN :

Iscrizione | Disclaimer

   EN    FR    IT 

 










Sommario :    VFR   VFR Marginale   IFR   IFR Intensivo   IFR Molto Intensivo
Visibilità : 
Base nubi : 
>= 8 km
>= 3000ft
5 / 8 km
1000 / 3000 ft
1500m / 5 km
500 / 1000 ft
800 / 1500m
200 / 500 ft
< 800m
< 200 ft
Simboli :   Temporali  Nebbia  Neve Forte  Precipitazioni Forti  Vento > 20 kt
SIGMETs :   Varie  Temporali  Ghiacco  Turbolenza  Onda orograficha  Ceneri Vulcaniche






- Altitudine del aeroporto : 37 ft


EGOW - Woodvale

ULTIMO METAR :
  • 211420Z 34009KT 9999 SCT035 13/07 Q1022 RMK BLU

METARs OBSOLETI :
  • 211350Z 33004KT 9999 FEW035 13/07 Q1023 RMK BLU
  • 211320Z 35006KT 9999 FEW035 13/07 Q1023 RMK BLU
  • 211250Z 34004KT 9999 FEW035 12/06 Q1023 RMK BLU
  • 211220Z 05006KT 9999 FEW040 14/07 Q1023 RMK BLU
  • 211150Z 07007KT 9999 FEW040 14/07 Q1023 RMK BLU

TAF TAF EGOW
Valido dal 21 a 15 ore il 21 a 18 ore UTC


211353Z 2115/2118 32007KT 9999 FEW040



MetMap, La meteo Aeronautica in un colpo d'occhio ! - Copyright ORBIFLY Dicembre 2007 - Disclaimer

ORBIFLY MET'MAP TEAM :

Programmazione e sviluppo : Alexandra Zaïnal
Concezione e sviluppo : Baudouin d'Aumeries
Co-Programmazione e sviluppo : Marc-Olivier Méhu
Supporto tecnico e logistico : Manuel Goepfert
Aiuto per la traduzione : Arnaldo La Scala

Contatto : metmap@orbifly.com




FONTI E CREDITI :

   NOAA